createdAt,value
2022-07-28T00:00:17.236Z,40.21
2022-07-28T00:00:49.746Z,40.25
2022-07-28T00:01:24.806Z,40.12
2022-07-28T00:01:59.829Z,40.03
2022-07-28T00:02:32.257Z,40.03
2022-07-28T00:03:04.837Z,40.13
2022-07-28T00:03:39.769Z,39.85
2022-07-28T00:04:12.383Z,40.11
2022-07-28T00:04:45.036Z,40.28
2022-07-28T00:05:19.942Z,40.12
2022-07-28T00:05:52.330Z,40.13
2022-07-28T00:06:24.631Z,39.96
2022-07-28T00:06:59.563Z,40.08
2022-07-28T00:07:33.257Z,40.09
2022-07-28T00:08:05.651Z,39.97
2022-07-28T00:08:40.551Z,40.31
2022-07-28T00:09:12.902Z,40.38
2022-07-28T00:09:45.221Z,40.23
2022-07-28T00:10:20.175Z,39.95
2022-07-28T00:10:52.495Z,40.38
2022-07-28T00:11:24.818Z,40.47
2022-07-28T00:11:59.741Z,40.24
2022-07-28T00:12:32.061Z,40.13
2022-07-28T00:13:06.856Z,40.20
2022-07-28T00:13:39.463Z,40.16
2022-07-28T00:14:14.737Z,40.25
2022-07-28T00:14:47.259Z,40.50
2022-07-28T00:15:19.607Z,40.45
2022-07-28T00:15:54.599Z,40.03
2022-07-28T00:16:29.651Z,40.16
2022-07-28T00:17:01.999Z,40.45
2022-07-28T00:17:36.895Z,40.21
2022-07-28T00:18:09.189Z,40.43
2022-07-28T00:18:41.554Z,39.94
2022-07-28T00:19:16.502Z,39.94
2022-07-28T00:19:48.820Z,40.14
2022-07-28T00:20:21.554Z,40.42
2022-07-28T00:20:56.793Z,40.18
2022-07-28T00:21:29.483Z,40.35
2022-07-28T00:22:02.836Z,40.00
2022-07-28T00:22:37.790Z,40.02
2022-07-28T00:23:10.110Z,40.50
2022-07-28T00:23:42.423Z,40.52
2022-07-28T00:24:17.515Z,40.01
2022-07-28T00:24:49.994Z,40.40
2022-07-28T00:25:23.037Z,40.48
2022-07-28T00:25:57.904Z,40.35
2022-07-28T00:26:31.210Z,40.38
2022-07-28T00:27:03.931Z,40.42
2022-07-28T00:27:38.835Z,40.59
2022-07-28T00:28:11.238Z,40.28
2022-07-28T00:28:43.546Z,40.52
2022-07-28T00:29:18.504Z,40.51
2022-07-28T00:29:51.299Z,40.47
2022-07-28T00:30:26.469Z,40.67
2022-07-28T00:30:58.973Z,40.33
2022-07-28T00:31:42.952Z,40.63
2022-07-28T00:32:15.377Z,40.18
2022-07-28T00:32:50.397Z,40.62
2022-07-28T00:33:22.754Z,40.15
2022-07-28T00:33:55.426Z,40.18
2022-07-28T00:34:30.367Z,40.64
2022-07-28T00:35:03.463Z,40.58
2022-07-28T00:35:36.281Z,40.48
2022-07-28T00:36:13.278Z,40.67
2022-07-28T00:36:45.606Z,40.54
2022-07-28T00:37:17.902Z,40.48
2022-07-28T00:37:52.802Z,40.52
2022-07-28T00:38:25.121Z,40.54
2022-07-28T00:38:58.758Z,40.22
2022-07-28T00:39:34.293Z,40.44
2022-07-28T00:40:08.216Z,40.42
2022-07-28T00:40:55.634Z,40.48
2022-07-28T00:41:30.598Z,40.50
2022-07-28T00:42:02.991Z,40.28
2022-07-28T00:42:35.353Z,40.24
2022-07-28T00:43:10.257Z,40.72
2022-07-28T00:43:43.988Z,40.55
2022-07-28T00:44:18.918Z,40.49
2022-07-28T00:44:51.267Z,40.42
2022-07-28T00:45:23.696Z,40.62
2022-07-28T00:45:58.654Z,40.29
2022-07-28T00:46:31.019Z,40.83
2022-07-28T00:47:08.742Z,40.65
2022-07-28T00:47:41.081Z,40.69
2022-07-28T00:48:13.521Z,40.58
2022-07-28T00:48:52.091Z,40.39
2022-07-28T00:49:24.610Z,40.43
2022-07-28T00:49:57.065Z,40.35
2022-07-28T00:50:32.097Z,40.57
2022-07-28T00:51:04.430Z,40.59
2022-07-28T00:51:36.842Z,40.58
2022-07-28T00:52:12.755Z,40.93
2022-07-28T00:52:45.193Z,40.42
2022-07-28T00:53:17.805Z,40.44
2022-07-28T00:53:52.851Z,40.84
2022-07-28T00:54:25.242Z,40.67
2022-07-28T00:54:58.616Z,40.88
2022-07-28T00:55:33.550Z,40.60
2022-07-28T00:56:26.544Z,40.76
2022-07-28T00:57:01.820Z,40.63
2022-07-28T00:57:34.600Z,40.74
2022-07-28T00:58:06.964Z,40.45
2022-07-28T00:58:42.526Z,40.74
2022-07-28T00:59:14.853Z,40.60
2022-07-28T00:59:47.199Z,40.41
2022-07-28T01:00:22.171Z,40.81
2022-07-28T01:00:54.721Z,40.88
2022-07-28T01:01:27.424Z,40.84
2022-07-28T01:02:02.665Z,40.72
2022-07-28T01:02:37.866Z,40.67
2022-07-28T01:03:10.658Z,40.49
2022-07-28T01:03:48.696Z,40.67
2022-07-28T01:04:21.742Z,40.88
2022-07-28T01:04:54.089Z,40.58
2022-07-28T01:05:43.913Z,40.67
2022-07-28T01:06:40.613Z,40.63
2022-07-28T01:07:23.089Z,40.69
2022-07-28T01:08:02.283Z,40.83
2022-07-28T01:08:41.733Z,40.88
2022-07-28T01:09:25.593Z,40.96
2022-07-28T01:10:04.834Z,40.66
2022-07-28T01:10:41.467Z,40.44
2022-07-28T01:11:22.386Z,40.68
2022-07-28T01:11:59.350Z,40.92
2022-07-28T01:12:41.660Z,40.76
2022-07-28T01:13:36.113Z,40.87
2022-07-28T01:14:11.343Z,40.83
2022-07-28T01:14:48.609Z,40.65
2022-07-28T01:15:27.902Z,40.67
2022-07-28T01:16:04.083Z,40.69
2022-07-28T01:16:41.647Z,40.54
2022-07-28T01:17:23.227Z,40.77
2022-07-28T01:18:03.260Z,40.74
2022-07-28T01:18:41.199Z,40.96
2022-07-28T01:19:25.953Z,40.54
2022-07-28T01:20:06.452Z,40.84
2022-07-28T01:20:45.037Z,40.95
2022-07-28T01:21:20.575Z,40.80
2022-07-28T01:21:54.396Z,40.53
2022-07-28T01:22:32.642Z,40.55
2022-07-28T01:23:26.570Z,41.09
2022-07-28T01:24:08.971Z,41.03
2022-07-28T01:24:51.770Z,41.06
2022-07-28T01:25:33.325Z,41.16
2022-07-28T01:26:42.435Z,40.98
2022-07-28T01:27:24.937Z,41.14
2022-07-28T01:28:09.918Z,40.91
2022-07-28T01:28:55.787Z,41.17
2022-07-28T01:29:58.775Z,41.09
2022-07-28T01:30:36.113Z,41.15
2022-07-28T01:31:12.364Z,41.04
2022-07-28T01:31:49.099Z,40.67
2022-07-28T01:32:26.083Z,41.07
2022-07-28T01:33:01.463Z,41.17
2022-07-28T01:33:39.563Z,40.96
2022-07-28T01:34:15.750Z,41.22
2022-07-28T01:34:50.992Z,41.03
2022-07-28T01:35:29.146Z,40.98
2022-07-28T01:36:04.064Z,41.12
2022-07-28T01:36:40.302Z,40.77
2022-07-28T01:37:19.093Z,40.99
2022-07-28T01:37:54.197Z,41.02
2022-07-28T01:38:27.087Z,41.03
2022-07-28T01:39:03.726Z,41.05
2022-07-28T01:39:38.083Z,40.80
2022-07-28T01:40:12.246Z,40.72
2022-07-28T01:40:50.059Z,41.00
2022-07-28T01:41:24.332Z,41.08
2022-07-28T01:41:57.870Z,41.29
2022-07-28T01:42:36.922Z,41.13
2022-07-28T01:43:14.012Z,41.09
2022-07-28T01:43:48.771Z,41.28
2022-07-28T01:44:26.579Z,41.07
2022-07-28T01:45:00.221Z,41.25
2022-07-28T01:45:38.252Z,41.11
2022-07-28T01:46:11.223Z,41.29
2022-07-28T01:46:44.671Z,41.20
2022-07-28T01:47:21.354Z,41.32
2022-07-28T01:47:55.062Z,41.16
2022-07-28T01:48:28.523Z,40.89
2022-07-28T01:49:04.515Z,41.38
2022-07-28T01:49:37.655Z,40.85
2022-07-28T01:50:10.858Z,41.39
2022-07-28T01:50:46.521Z,41.42
2022-07-28T01:51:20.318Z,40.93
2022-07-28T01:51:53.789Z,41.36
2022-07-28T01:52:26.847Z,41.26
2022-07-28T01:53:02.363Z,41.48
2022-07-28T01:53:37.756Z,41.11
2022-07-28T01:54:12.937Z,40.93
2022-07-28T01:54:49.224Z,41.06
2022-07-28T01:55:23.193Z,41.25
2022-07-28T01:55:58.815Z,41.25
2022-07-28T01:56:33.566Z,41.41
2022-07-28T01:57:06.431Z,41.26
2022-07-28T01:57:44.754Z,41.22
2022-07-28T01:58:19.323Z,41.18
2022-07-28T01:58:55.794Z,41.05
2022-07-28T01:59:30.095Z,41.08
2022-07-28T02:00:09.747Z,41.30
2022-07-28T02:00:51.289Z,41.46
2022-07-28T02:01:25.067Z,41.21
2022-07-28T02:01:57.881Z,41.20
2022-07-28T02:02:34.423Z,41.08
2022-07-28T02:03:07.626Z,41.20
2022-07-28T02:03:42.702Z,40.98
2022-07-28T02:04:16.433Z,40.91
2022-07-28T02:04:49.578Z,41.39
2022-07-28T02:05:25.613Z,41.54
2022-07-28T02:05:59.063Z,41.25
2022-07-28T02:06:32.002Z,41.00
2022-07-28T02:07:07.631Z,41.29
2022-07-28T02:07:41.653Z,41.03
2022-07-28T02:08:14.673Z,41.53
2022-07-28T02:08:50.488Z,41.37
2022-07-28T02:09:23.602Z,41.08
2022-07-28T02:09:57.523Z,41.05
2022-07-28T02:10:32.814Z,41.22
2022-07-28T02:11:20.112Z,41.01
2022-07-28T02:11:53.689Z,41.23
2022-07-28T02:12:29.805Z,41.25
2022-07-28T02:13:02.823Z,41.15
2022-07-28T02:13:36.626Z,41.14
2022-07-28T02:14:11.501Z,41.27
2022-07-28T02:14:47.141Z,41.15
2022-07-28T02:15:19.873Z,41.27
2022-07-28T02:15:55.427Z,41.45
2022-07-28T02:16:30.828Z,41.08
2022-07-28T02:17:08.080Z,41.53
2022-07-28T02:17:45.030Z,41.40
2022-07-28T02:18:17.464Z,41.32
2022-07-28T02:18:50.667Z,41.34
2022-07-28T02:19:26.588Z,41.55
2022-07-28T02:19:58.939Z,41.22
2022-07-28T02:20:34.547Z,41.14
2022-07-28T02:21:07.568Z,41.39
2022-07-28T02:21:40.371Z,41.39
2022-07-28T02:22:15.775Z,41.13
2022-07-28T02:22:51.238Z,41.63
2022-07-28T02:23:24.464Z,41.51
2022-07-28T02:24:00.647Z,41.27
2022-07-28T02:24:34.353Z,41.56
2022-07-28T02:25:08.489Z,41.34
2022-07-28T02:25:44.854Z,41.36
2022-07-28T02:26:18.005Z,41.19
2022-07-28T02:26:54.178Z,41.34
2022-07-28T02:27:35.702Z,41.28
2022-07-28T02:28:09.006Z,41.51
2022-07-28T02:28:43.768Z,41.32
2022-07-28T02:29:48.131Z,41.69
2022-07-28T02:30:16.484Z,41.37
2022-07-28T02:30:55.997Z,41.27
2022-07-28T02:31:37.924Z,41.43
2022-07-28T02:32:27.927Z,41.78
2022-07-28T02:33:04.207Z,41.73
2022-07-28T02:34:00.138Z,41.54
2022-07-28T02:34:35.046Z,41.71
2022-07-28T02:35:10.059Z,41.81
2022-07-28T02:35:46.004Z,41.65
2022-07-28T02:36:29.463Z,41.78
2022-07-28T02:37:04.895Z,41.83
2022-07-28T02:37:39.412Z,41.32
2022-07-28T02:38:17.314Z,41.63
2022-07-28T02:38:51.537Z,41.58
2022-07-28T02:39:26.465Z,41.67
2022-07-28T02:40:02.039Z,41.38
2022-07-28T02:40:36.484Z,41.44
2022-07-28T02:41:13.431Z,41.87
2022-07-28T02:41:49.956Z,41.73
2022-07-28T02:42:27.175Z,41.57
2022-07-28T02:43:02.429Z,41.63
2022-07-28T02:43:49.313Z,41.52
2022-07-28T02:44:28.429Z,41.55
2022-07-28T02:45:06.393Z,41.62
2022-07-28T02:45:40.554Z,41.38
2022-07-28T02:46:15.383Z,41.78
2022-07-28T02:46:55.554Z,41.52
2022-07-28T02:47:31.765Z,41.79
2022-07-28T02:48:07.447Z,41.36
2022-07-28T02:48:43.682Z,41.40
2022-07-28T02:49:20.163Z,41.71
2022-07-28T02:49:52.974Z,41.56
2022-07-28T02:50:29.479Z,41.44
2022-07-28T02:51:02.653Z,41.88
2022-07-28T02:51:35.494Z,41.76
2022-07-28T02:52:10.919Z,41.42
2022-07-28T02:52:43.688Z,41.52
2022-07-28T02:53:16.935Z,41.84
2022-07-28T02:53:52.014Z,41.46
2022-07-28T02:54:25.793Z,41.70
2022-07-28T02:54:59.102Z,41.88
2022-07-28T02:55:34.530Z,41.75
2022-07-28T02:56:07.252Z,41.60
2022-07-28T02:56:41.009Z,41.67
2022-07-28T02:57:16.318Z,41.44
2022-07-28T02:57:54.641Z,41.69
2022-07-28T02:58:31.648Z,41.80
2022-07-28T02:59:04.674Z,41.59
2022-07-28T02:59:37.558Z,41.70
2022-07-28T03:00:13.266Z,41.51
2022-07-28T03:00:53.352Z,41.55
2022-07-28T03:01:26.433Z,41.92
2022-07-28T03:02:04.283Z,41.66
2022-07-28T03:02:39.994Z,41.59
2022-07-28T03:03:12.981Z,41.65
2022-07-28T03:03:49.416Z,41.66
2022-07-28T03:04:38.279Z,41.71
2022-07-28T03:05:14.034Z,41.87
2022-07-28T03:05:47.135Z,41.51
2022-07-28T03:06:20.110Z,41.58
2022-07-28T03:07:03.626Z,41.49
2022-07-28T03:07:36.541Z,41.46
2022-07-28T03:08:26.954Z,41.61
2022-07-28T03:09:02.351Z,41.73
2022-07-28T03:09:40.031Z,41.46
2022-07-28T03:10:33.880Z,41.56
2022-07-28T03:11:08.871Z,41.63
2022-07-28T03:11:55.274Z,41.34
2022-07-28T03:12:30.063Z,41.56
2022-07-28T03:13:03.266Z,41.23
2022-07-28T03:13:38.262Z,41.56
2022-07-28T03:14:10.891Z,41.61
2022-07-28T03:14:43.394Z,41.20
2022-07-28T03:15:18.802Z,41.43
2022-07-28T03:15:51.099Z,41.50
2022-07-28T03:16:23.553Z,41.68
2022-07-28T03:16:58.578Z,41.47
2022-07-28T03:17:33.538Z,41.46
2022-07-28T03:18:08.682Z,41.50
2022-07-28T03:18:40.996Z,41.63
2022-07-28T03:19:14.377Z,41.55
2022-07-28T03:19:52.515Z,41.48
2022-07-28T03:20:24.890Z,41.15
2022-07-28T03:20:57.506Z,41.18
2022-07-28T03:21:32.453Z,41.19
2022-07-28T03:22:12.738Z,41.27
2022-07-28T03:22:45.182Z,41.74
2022-07-28T03:23:20.431Z,41.57
2022-07-28T03:23:55.142Z,41.29
2022-07-28T03:24:30.490Z,41.52
2022-07-28T03:25:11.564Z,41.42
2022-07-28T03:25:47.587Z,41.41
2022-07-28T03:26:26.702Z,41.48
2022-07-28T03:27:01.405Z,41.37
2022-07-28T03:27:37.490Z,41.53
2022-07-28T03:28:15.233Z,41.56
2022-07-28T03:28:48.949Z,41.63
2022-07-28T03:29:21.355Z,41.54
2022-07-28T03:30:03.451Z,41.25
2022-07-28T03:30:39.867Z,41.69
2022-07-28T03:31:15.364Z,41.77
2022-07-28T03:31:48.504Z,41.66
2022-07-28T03:32:22.314Z,41.77
2022-07-28T03:33:01.540Z,41.56
2022-07-28T03:33:34.110Z,41.77
2022-07-28T03:34:06.617Z,41.59
2022-07-28T03:34:41.877Z,41.32
2022-07-28T03:35:14.921Z,41.51
2022-07-28T03:35:51.587Z,41.55
2022-07-28T03:36:34.222Z,41.32
2022-07-28T03:37:12.040Z,41.32
2022-07-28T03:37:52.247Z,41.56
2022-07-28T03:38:31.524Z,41.39
2022-07-28T03:39:15.955Z,41.63
2022-07-28T03:39:51.262Z,41.49
2022-07-28T03:40:33.013Z,41.63
2022-07-28T03:41:06.842Z,41.85
2022-07-28T03:41:39.895Z,41.72
2022-07-28T03:42:12.730Z,41.55
2022-07-28T03:42:48.529Z,41.46
2022-07-28T03:43:24.457Z,41.61
2022-07-28T03:44:01.067Z,41.82
2022-07-28T03:44:36.374Z,41.78
2022-07-28T03:45:09.982Z,41.75
2022-07-28T03:45:47.965Z,41.82
2022-07-28T03:46:23.382Z,41.81
2022-07-28T03:46:57.596Z,41.67
2022-07-28T03:47:33.779Z,41.68
2022-07-28T03:48:08.853Z,41.62
2022-07-28T03:48:41.258Z,41.46
2022-07-28T03:49:19.438Z,41.85
2022-07-28T03:49:53.993Z,41.51
2022-07-28T03:50:32.268Z,41.58
2022-07-28T03:51:04.621Z,41.66
2022-07-28T03:51:40.103Z,41.63
2022-07-28T03:52:15.191Z,41.84
2022-07-28T03:52:53.000Z,41.48
2022-07-28T03:53:30.099Z,41.43
2022-07-28T03:54:02.420Z,41.64
2022-07-28T03:54:34.790Z,41.95
2022-07-28T03:55:21.602Z,41.73
2022-07-28T03:55:54.088Z,41.58
2022-07-28T03:56:26.407Z,41.68
2022-07-28T03:57:05.502Z,41.87
2022-07-28T03:57:37.902Z,41.38
2022-07-28T03:58:12.853Z,41.74
2022-07-28T03:58:45.159Z,41.92
2022-07-28T03:59:19.226Z,41.76
2022-07-28T03:59:54.102Z,41.56
2022-07-28T04:00:26.554Z,41.65
2022-07-28T04:00:59.265Z,41.63
2022-07-28T04:01:34.348Z,41.63
2022-07-28T04:02:06.944Z,41.54
2022-07-28T04:02:45.140Z,41.60
2022-07-28T04:03:36.877Z,41.41
2022-07-28T04:04:16.277Z,41.71
2022-07-28T04:04:51.397Z,41.76
2022-07-28T04:05:23.683Z,41.63
2022-07-28T04:05:56.103Z,41.55
2022-07-28T04:06:31.326Z,41.44
2022-07-28T04:07:03.725Z,41.61
2022-07-28T04:07:36.054Z,41.44
2022-07-28T04:08:11.013Z,41.39
2022-07-28T04:08:43.711Z,41.53
2022-07-28T04:09:16.070Z,41.49
2022-07-28T04:09:51.007Z,41.69
2022-07-28T04:10:23.377Z,41.25
2022-07-28T04:10:55.810Z,41.77
2022-07-28T04:11:30.787Z,41.34
2022-07-28T04:12:03.132Z,41.66
2022-07-28T04:12:46.319Z,41.50
2022-07-28T04:13:21.309Z,41.83
2022-07-28T04:13:53.752Z,41.63
2022-07-28T04:14:26.035Z,41.91
2022-07-28T04:15:00.943Z,41.97
2022-07-28T04:15:33.278Z,41.87
2022-07-28T04:16:07.097Z,42.04
2022-07-28T04:16:42.303Z,41.56
2022-07-28T04:17:14.658Z,41.62
2022-07-28T04:17:48.800Z,41.79
2022-07-28T04:18:26.374Z,41.64
2022-07-28T04:18:58.713Z,42.00
2022-07-28T04:19:31.018Z,41.94
2022-07-28T04:20:06.221Z,41.98
2022-07-28T04:20:38.551Z,42.02
2022-07-28T04:21:10.885Z,41.87
2022-07-28T04:21:45.793Z,41.61
2022-07-28T04:22:18.095Z,41.88
2022-07-28T04:22:51.547Z,41.96
2022-07-28T04:23:24.210Z,41.99
2022-07-28T04:24:01.939Z,42.02
2022-07-28T04:24:34.529Z,41.73
2022-07-28T04:25:07.891Z,42.14
2022-07-28T04:25:43.003Z,42.15
2022-07-28T04:26:15.351Z,42.01
2022-07-28T04:26:47.694Z,42.09
2022-07-28T04:27:22.592Z,42.12
2022-07-28T04:27:55.784Z,42.35
2022-07-28T04:28:30.830Z,42.35
2022-07-28T04:29:03.599Z,42.01
2022-07-28T04:29:35.964Z,42.07
2022-07-28T04:30:13.361Z,42.05
2022-07-28T04:30:45.938Z,42.22
2022-07-28T04:31:18.613Z,42.13
2022-07-28T04:31:53.590Z,42.07
2022-07-28T04:32:27.230Z,42.08
2022-07-28T04:32:59.583Z,42.12
2022-07-28T04:33:37.150Z,42.14
2022-07-28T04:34:10.050Z,42.14
2022-07-28T04:34:42.390Z,42.36
2022-07-28T04:35:18.135Z,41.92
2022-07-28T04:35:52.773Z,42.03
2022-07-28T04:36:26.102Z,42.29
2022-07-28T04:37:01.100Z,41.94
2022-07-28T04:37:33.450Z,42.19
2022-07-28T04:38:06.061Z,42.07
2022-07-28T04:38:40.994Z,41.93
2022-07-28T04:39:13.378Z,42.22
2022-07-28T04:39:45.974Z,42.41
2022-07-28T04:40:20.986Z,42.07
2022-07-28T04:40:53.449Z,42.03
2022-07-28T04:41:26.715Z,42.34
2022-07-28T04:42:01.671Z,41.95
2022-07-28T04:42:34.398Z,42.00
2022-07-28T04:43:06.731Z,42.17
2022-07-28T04:43:41.620Z,42.23
2022-07-28T04:44:14.154Z,42.07
2022-07-28T04:44:47.103Z,42.36
2022-07-28T04:45:22.312Z,42.02
2022-07-28T04:45:54.813Z,42.36
2022-07-28T04:46:27.503Z,42.24
2022-07-28T04:47:02.514Z,42.48
2022-07-28T04:47:38.893Z,41.99
2022-07-28T04:48:12.502Z,42.19
2022-07-28T04:48:50.143Z,42.37
2022-07-28T04:49:22.551Z,42.02
2022-07-28T04:49:54.882Z,42.23
2022-07-28T04:50:27.371Z,42.02
2022-07-28T04:51:11.201Z,42.24
2022-07-28T04:51:48.542Z,42.48
2022-07-28T04:52:22.070Z,42.32
2022-07-28T04:52:57.020Z,42.33
2022-07-28T04:53:30.697Z,42.51
2022-07-28T04:54:03.317Z,42.41
2022-07-28T04:54:38.643Z,42.30
2022-07-28T04:55:11.102Z,42.36
2022-07-28T04:55:43.462Z,42.09
2022-07-28T04:56:19.031Z,42.29
2022-07-28T04:56:51.369Z,42.43
2022-07-28T04:57:23.676Z,42.12
2022-07-28T04:58:00.465Z,42.40
2022-07-28T04:58:32.913Z,42.51
2022-07-28T04:59:05.483Z,42.55
2022-07-28T04:59:40.656Z,42.14
2022-07-28T05:00:15.094Z,42.63
2022-07-28T05:00:50.067Z,42.37
2022-07-28T05:01:25.389Z,42.19
2022-07-28T05:01:57.774Z,42.17
2022-07-28T05:02:30.082Z,42.64
2022-07-28T05:03:05.415Z,43.06
2022-07-28T05:03:37.763Z,43.01
2022-07-28T05:04:13.036Z,43.05
2022-07-28T05:04:48.251Z,43.31
2022-07-28T05:05:20.703Z,43.40
2022-07-28T05:05:55.643Z,43.46
2022-07-28T05:06:27.929Z,43.73
2022-07-28T05:07:00.253Z,43.99
2022-07-28T05:07:32.568Z,43.80
2022-07-28T05:08:08.205Z,44.16
2022-07-28T05:08:40.542Z,43.74
2022-07-28T05:09:15.513Z,44.04
2022-07-28T05:09:47.837Z,43.84
2022-07-28T05:10:20.729Z,43.57
2022-07-28T05:10:55.682Z,43.52
2022-07-28T05:11:28.065Z,43.74
2022-07-28T05:12:00.374Z,43.89
2022-07-28T05:12:35.308Z,43.26
2022-07-28T05:13:08.047Z,43.42
2022-07-28T05:13:40.363Z,43.57
2022-07-28T05:14:15.601Z,43.21
2022-07-28T05:14:48.180Z,42.91
2022-07-28T05:15:20.805Z,43.03
2022-07-28T05:15:55.696Z,43.06
2022-07-28T05:16:28.155Z,42.88
2022-07-28T05:17:00.523Z,43.00
2022-07-28T05:17:36.581Z,42.79
2022-07-28T05:18:08.968Z,42.55
2022-07-28T05:18:43.875Z,42.72
2022-07-28T05:19:19.279Z,42.88
2022-07-28T05:19:51.674Z,42.53
2022-07-28T05:20:26.682Z,42.44
2022-07-28T05:20:58.966Z,42.36
2022-07-28T05:21:31.354Z,42.56
2022-07-28T05:22:06.391Z,42.58
2022-07-28T05:22:43.005Z,42.55
2022-07-28T05:23:17.699Z,42.12
2022-07-28T05:23:52.690Z,42.40
2022-07-28T05:24:25.003Z,42.26
2022-07-28T05:24:57.394Z,42.21
2022-07-28T05:25:32.349Z,42.38
2022-07-28T05:26:04.858Z,42.11
2022-07-28T05:26:37.237Z,41.86
2022-07-28T05:27:12.322Z,42.20
2022-07-28T05:27:45.113Z,42.02
2022-07-28T05:28:17.446Z,42.36
2022-07-28T05:28:52.366Z,42.27
2022-07-28T05:29:25.288Z,42.10
2022-07-28T05:30:10.402Z,41.92
2022-07-28T05:30:45.429Z,42.04
2022-07-28T05:31:17.799Z,42.29
2022-07-28T05:31:50.227Z,42.01
2022-07-28T05:32:25.267Z,42.03
2022-07-28T05:33:00.254Z,41.68
2022-07-28T05:33:35.198Z,42.03
2022-07-28T05:34:07.528Z,41.98
2022-07-28T05:34:42.470Z,42.07
2022-07-28T05:35:17.550Z,41.98
2022-07-28T05:35:53.942Z,42.07
2022-07-28T05:36:26.642Z,42.30
2022-07-28T05:37:02.376Z,41.89
2022-07-28T05:37:35.524Z,41.98
2022-07-28T05:38:10.978Z,41.97
2022-07-28T05:38:46.244Z,41.95
2022-07-28T05:39:18.559Z,41.92
2022-07-28T05:39:50.886Z,41.99
2022-07-28T05:40:27.311Z,42.06
2022-07-28T05:41:00.030Z,42.06
2022-07-28T05:41:32.379Z,42.19
2022-07-28T05:42:07.852Z,41.85
2022-07-28T05:42:40.793Z,41.95
2022-07-28T05:43:13.102Z,41.95
2022-07-28T05:43:47.978Z,41.71
2022-07-28T05:44:20.253Z,41.98
2022-07-28T05:44:52.543Z,42.19
2022-07-28T05:45:27.727Z,41.75
2022-07-28T05:46:00.132Z,41.63
2022-07-28T05:46:35.329Z,41.95
2022-07-28T05:47:07.670Z,41.92
2022-07-28T05:47:44.275Z,41.95
2022-07-28T05:48:21.118Z,41.76
2022-07-28T05:48:53.558Z,41.75
2022-07-28T05:49:26.228Z,42.01
2022-07-28T05:50:07.160Z,41.76
2022-07-28T05:50:39.874Z,41.83
2022-07-28T05:51:12.320Z,41.92
2022-07-28T05:51:47.245Z,41.80
2022-07-28T05:52:19.563Z,41.88
2022-07-28T05:52:52.098Z,41.95
2022-07-28T05:53:27.190Z,41.75
2022-07-28T05:53:59.494Z,42.02
2022-07-28T05:54:31.821Z,41.99
2022-07-28T05:55:07.780Z,41.97
2022-07-28T05:55:59.879Z,41.88
2022-07-28T05:56:35.070Z,41.91
2022-07-28T05:57:07.379Z,41.66
2022-07-28T05:57:47.610Z,41.95
2022-07-28T05:58:24.686Z,42.05
2022-07-28T05:58:58.601Z,41.80
2022-07-28T05:59:30.930Z,41.96
2022-07-28T06:00:06.854Z,42.08
2022-07-28T06:00:44.163Z,41.85
2022-07-28T06:01:19.142Z,42.08
2022-07-28T06:01:51.559Z,42.05
2022-07-28T06:02:23.969Z,42.26
2022-07-28T06:03:02.079Z,42.18
2022-07-28T06:03:41.401Z,41.95
2022-07-28T06:04:30.205Z,42.13
2022-07-28T06:05:09.331Z,41.97
2022-07-28T06:06:14.164Z,41.97
2022-07-28T06:06:36.571Z,41.98
2022-07-28T06:07:08.886Z,42.31
2022-07-28T06:07:42.788Z,42.13
2022-07-28T06:08:18.783Z,42.10
2022-07-28T06:08:51.088Z,42.12
2022-07-28T06:09:23.888Z,41.87
2022-07-28T06:09:58.806Z,42.04
2022-07-28T06:10:51.898Z,41.92
2022-07-28T06:11:26.829Z,42.16
2022-07-28T06:11:59.153Z,42.42
2022-07-28T06:12:31.486Z,42.09
2022-07-28T06:13:06.821Z,41.85
2022-07-28T06:13:39.718Z,41.98
2022-07-28T06:14:12.403Z,42.14
2022-07-28T06:14:47.587Z,42.22
2022-07-28T06:15:21.739Z,42.13
2022-07-28T06:15:54.189Z,42.02
2022-07-28T06:16:29.204Z,42.03
2022-07-28T06:17:01.541Z,42.19
2022-07-28T06:17:35.191Z,42.39
2022-07-28T06:18:10.242Z,42.22
2022-07-28T06:18:44.138Z,42.20
2022-07-28T06:19:19.124Z,42.31
2022-07-28T06:19:51.432Z,42.19
2022-07-28T06:20:28.977Z,42.13
2022-07-28T06:21:02.421Z,42.08
2022-07-28T06:21:37.401Z,42.07
2022-07-28T06:22:10.158Z,42.24
2022-07-28T06:22:43.539Z,42.21
2022-07-28T06:23:21.913Z,42.34
2022-07-28T06:23:54.240Z,42.44
2022-07-28T06:24:29.677Z,42.14
2022-07-28T06:25:02.016Z,42.48
2022-07-28T06:25:34.339Z,42.09
2022-07-28T06:26:09.261Z,42.49
2022-07-28T06:26:44.932Z,42.33
2022-07-28T06:27:20.067Z,42.08
2022-07-28T06:27:53.637Z,42.46
2022-07-28T06:28:26.067Z,42.37
2022-07-28T06:29:01.001Z,42.50
2022-07-28T06:29:33.320Z,42.09
2022-07-28T06:30:08.000Z,42.38
2022-07-28T06:30:42.951Z,42.43
2022-07-28T06:31:15.305Z,42.32
2022-07-28T06:31:47.759Z,42.36
2022-07-28T06:32:22.715Z,42.36
2022-07-28T06:32:55.502Z,42.36
2022-07-28T06:33:27.875Z,42.23
2022-07-28T06:34:02.774Z,42.15
2022-07-28T06:34:35.230Z,42.36
2022-07-28T06:35:08.938Z,42.41
2022-07-28T06:35:51.327Z,42.11
2022-07-28T06:36:23.830Z,42.27
2022-07-28T06:36:56.160Z,42.46
2022-07-28T06:37:31.092Z,42.36
2022-07-28T06:38:03.468Z,42.52
2022-07-28T06:38:35.783Z,42.15
2022-07-28T06:39:10.710Z,42.38
2022-07-28T06:39:43.089Z,42.41
2022-07-28T06:40:19.321Z,42.36
2022-07-28T06:40:51.719Z,42.28
2022-07-28T06:41:27.098Z,42.45
2022-07-28T06:41:59.395Z,42.64
2022-07-28T06:42:31.741Z,42.72
2022-07-28T06:43:06.770Z,42.76
2022-07-28T06:43:39.491Z,42.69
2022-07-28T06:44:12.624Z,42.41
2022-07-28T06:44:58.518Z,42.53
2022-07-28T06:45:31.595Z,42.67
2022-07-28T06:46:06.637Z,42.58
2022-07-28T06:46:39.024Z,42.27
2022-07-28T06:47:11.456Z,42.76
2022-07-28T06:47:47.288Z,42.22
2022-07-28T06:48:20.391Z,42.69
2022-07-28T06:48:53.141Z,42.49
2022-07-28T06:49:28.252Z,42.49
2022-07-28T06:50:00.738Z,42.55
2022-07-28T06:50:33.110Z,42.36
2022-07-28T06:51:10.762Z,42.73
2022-07-28T06:51:43.075Z,42.46
2022-07-28T06:52:15.512Z,42.47
2022-07-28T06:52:50.475Z,42.49
2022-07-28T06:53:23.441Z,42.43
2022-07-28T06:53:58.375Z,42.65
2022-07-28T06:54:30.636Z,42.57
2022-07-28T06:55:03.092Z,42.53
2022-07-28T06:55:41.195Z,42.35
2022-07-28T06:56:15.639Z,42.63
2022-07-28T06:56:50.940Z,42.58
2022-07-28T06:57:23.310Z,42.28
2022-07-28T06:58:08.162Z,42.40
2022-07-28T06:58:40.532Z,42.47
2022-07-28T06:59:16.148Z,42.62
2022-07-28T06:59:49.285Z,42.63
2022-07-28T07:00:21.878Z,42.58
2022-07-28T07:00:56.893Z,42.62
2022-07-28T07:01:29.354Z,42.70
2022-07-28T07:02:02.510Z,42.68
2022-07-28T07:02:41.052Z,42.41
2022-07-28T07:03:13.365Z,42.70
2022-07-28T07:03:48.415Z,42.67
2022-07-28T07:04:20.784Z,42.73
2022-07-28T07:04:53.082Z,42.82
2022-07-28T07:05:32.061Z,42.80
2022-07-28T07:06:07.536Z,42.84
2022-07-28T07:06:42.472Z,42.94
2022-07-28T07:07:17.135Z,42.79
2022-07-28T07:07:52.318Z,42.79
2022-07-28T07:08:24.672Z,43.04
2022-07-28T07:09:00.110Z,42.96
2022-07-28T07:09:32.530Z,42.63
2022-07-28T07:10:06.277Z,42.92
2022-07-28T07:10:41.216Z,42.99
2022-07-28T07:11:13.577Z,42.70
2022-07-28T07:11:45.919Z,42.79
2022-07-28T07:12:20.882Z,42.94
2022-07-28T07:12:53.251Z,43.20
2022-07-28T07:13:29.236Z,42.69
2022-07-28T07:14:02.705Z,42.84
2022-07-28T07:14:35.321Z,43.14
2022-07-28T07:15:12.100Z,42.92
2022-07-28T07:15:44.461Z,42.94
2022-07-28T07:16:19.607Z,42.89
2022-07-28T07:16:52.042Z,42.94
2022-07-28T07:17:24.346Z,42.99
2022-07-28T07:17:59.253Z,42.92
2022-07-28T07:18:31.531Z,42.83
2022-07-28T07:19:06.866Z,42.82
2022-07-28T07:19:42.050Z,42.98
2022-07-28T07:20:16.558Z,43.06
2022-07-28T07:20:54.739Z,43.10
2022-07-28T07:21:29.772Z,42.99
2022-07-28T07:22:04.666Z,42.71
2022-07-28T07:22:43.061Z,42.67
2022-07-28T07:23:15.399Z,43.04
2022-07-28T07:23:50.352Z,42.99
2022-07-28T07:24:22.707Z,43.08
2022-07-28T07:24:57.613Z,43.07
2022-07-28T07:25:32.893Z,42.89
2022-07-28T07:26:05.246Z,42.88
2022-07-28T07:26:40.604Z,42.77
2022-07-28T07:27:12.933Z,42.85
2022-07-28T07:27:46.197Z,43.01
2022-07-28T07:28:21.109Z,42.98
2022-07-28T07:28:53.474Z,42.79
2022-07-28T07:29:25.997Z,42.70
2022-07-28T07:30:05.557Z,42.97
2022-07-28T07:30:37.980Z,42.70
2022-07-28T07:31:13.105Z,42.97
2022-07-28T07:31:45.696Z,42.87
2022-07-28T07:32:18.073Z,42.89
2022-07-28T07:32:53.058Z,42.77
2022-07-28T07:33:25.423Z,42.78